Time;durP1;ratioP1;P1;durP2;ratioP2;P2;SDS_P1;SDS_P2;PMS_P1;PMS_P2;Temp;Humidity;BMP_temperature;BMP_pressure;BME280_temperature;BME280_humidity;BME280_pressure;Samples;Min_cycle;Max_cycle;Signal;HPM_P1;HPM_P2
2022/12/30 00:01:13;;;;;;;13.48;2.67;;;;;;;;;;5011934;28;20204;-66
2022/12/30 00:03:38;;;;;;;16.65;3.20;;;;;;;;;;5011863;28;20257;-66
2022/12/30 00:06:04;;;;;;;13.07;3.00;;;;;;;;;;5012750;28;20600;-66
2022/12/30 00:08:48;;;;;;;11.40;2.53;;;;;;;;;;5011935;28;20258;-66
2022/12/30 00:11:14;;;;;;;15.53;2.60;;;;;;;;;;5012618;28;20279;-66
2022/12/30 00:33:06;;;;;;;10.77;2.60;;;;;;;;;;5010774;28;20227;-66
2022/12/30 00:35:31;;;;;;;13.40;2.37;;;;;;;;;;5011757;28;20224;-66
2022/12/30 00:37:57;;;;;;;10.63;2.03;;;;;;;;;;5011300;28;20208;-66
2022/12/30 00:40:22;;;;;;;11.97;2.00;;;;;;;;;;5012052;28;20263;-66
2022/12/30 00:45:31;;;;;;;13.03;2.27;;;;;;;;;;5012396;28;20295;-66
2022/12/30 00:47:56;;;;;;;13.40;2.53;;;;;;;;;;5012635;28;20667;-66
2022/12/30 00:58:33;;;;;;;7.45;1.83;;;;;;;;;;5011470;28;20695;-66
2022/12/30 01:00:58;;;;;;;9.10;2.03;;;;;;;;;;5012526;28;20205;-66
2022/12/30 01:03:23;;;;;;;15.93;2.72;;;;;;;;;;5011116;28;20569;-66
2022/12/30 01:05:48;;;;;;;11.82;2.10;;;;;;;;;;5012279;28;20211;-66
2022/12/30 01:08:14;;;;;;;9.90;2.07;;;;;;;;;;5011975;28;20223;-66
2022/12/30 01:10:39;;;;;;;11.97;2.30;;;;;;;;;;5011375;28;20711;-66
2022/12/30 01:13:04;;;;;;;12.97;1.73;;;;;;;;;;5012111;28;20225;-65
2022/12/30 01:15:30;;;;;;;14.40;2.33;;;;;;;;;;5012494;28;20212;-67
2022/12/30 01:17:55;;;;;;;8.20;2.03;;;;;;;;;;5011493;28;20204;-66
2022/12/30 01:20:20;;;;;;;9.10;1.80;;;;;;;;;;5011768;28;20216;-66
2022/12/30 01:22:46;;;;;;;10.53;1.73;;;;;;;;;;5012327;28;20209;-66
2022/12/30 01:25:11;;;;;;;11.60;2.40;;;;;;;;;;5010812;28;20227;-66
2022/12/30 01:27:36;;;;;;;9.00;1.87;;;;;;;;;;5012361;28;20208;-66
2022/12/30 01:30:02;;;;;;;12.38;1.83;;;;;;;;;;5011601;28;20304;-65
2022/12/30 01:32:28;;;;;;;10.23;1.87;;;;;;;;;;5011538;28;20224;-66
2022/12/30 01:34:53;;;;;;;9.50;2.10;;;;;;;;;;5011896;28;20636;-66
2022/12/30 01:37:18;;;;;;;8.47;1.73;;;;;;;;;;5011883;28;20735;-66
2022/12/30 01:39:44;;;;;;;10.27;2.20;;;;;;;;;;5011207;28;20231;-66
2022/12/30 01:42:16;;;;;;;11.00;2.00;;;;;;;;;;5011528;28;20266;-66
2022/12/30 01:44:43;;;;;;;12.97;2.00;;;;;;;;;;5015093;28;20213;-66
2022/12/30 01:47:08;;;;;;;10.13;2.13;;;;;;;;;;5014533;28;20683;-66
2022/12/30 01:49:33;;;;;;;10.83;2.20;;;;;;;;;;5015510;28;20680;-66
2022/12/30 01:51:58;;;;;;;8.73;1.80;;;;;;;;;;5014164;28;20328;-66
2022/12/30 01:54:24;;;;;;;10.23;2.37;;;;;;;;;;5013198;28;20574;-66
2022/12/30 01:56:50;;;;;;;8.60;1.83;;;;;;;;;;5015410;28;20200;-66
2022/12/30 01:59:15;;;;;;;10.27;2.07;;;;;;;;;;5015182;28;20588;-66
2022/12/30 02:01:40;;;;;;;10.23;2.07;;;;;;;;;;5014601;28;20676;-66
2022/12/30 02:04:07;;;;;;;11.53;2.57;;;;;;;;;;5015024;28;20212;-66
2022/12/30 02:06:39;;;;;;;7.87;2.00;;;;;;;;;;5014366;28;20212;-66
2022/12/30 02:09:04;;;;;;;11.30;1.70;;;;;;;;;;5013723;28;20250;-66
2022/12/30 02:11:29;;;;;;;10.40;2.03;;;;;;;;;;5015073;28;20201;-66
2022/12/30 02:13:55;;;;;;;10.57;1.83;;;;;;;;;;5013224;28;20675;-66
2022/12/30 02:16:26;;;;;;;8.80;1.80;;;;;;;;;;5014602;28;20664;-65
2022/12/30 02:18:52;;;;;;;6.90;1.77;;;;;;;;;;5005025;28;20211;-66
2022/12/30 02:21:20;;;;;;;11.53;1.80;;;;;;;;;;4984909;28;20220;-66
2022/12/30 02:23:49;;;;;;;9.73;1.80;;;;;;;;;;4985989;28;20216;-66
2022/12/30 02:26:18;;;;;;;12.13;2.00;;;;;;;;;;5004302;28;20216;-66
2022/12/30 02:28:49;;;;;;;10.07;1.77;;;;;;;;;;4988632;28;20255;-66
2022/12/30 02:31:22;;;;;;;9.50;2.30;;;;;;;;;;4984901;28;20224;-66
2022/12/30 02:33:59;;;;;;;9.37;2.00;;;;;;;;;;4980832;28;20529;-66
2022/12/30 02:36:25;;;;;;;10.83;2.13;;;;;;;;;;4988682;28;20209;-66
2022/12/30 02:38:56;;;;;;;9.93;1.90;;;;;;;;;;4977024;28;20213;-66
2022/12/30 02:46:53;;;;;;;10.57;2.07;;;;;;;;;;4997892;28;20602;-66
2022/12/30 02:49:18;;;;;;;11.03;2.10;;;;;;;;;;5002959;28;20663;-66
2022/12/30 02:54:27;;;;;;;13.33;2.27;;;;;;;;;;4997039;28;20256;-66
2022/12/30 02:56:52;;;;;;;13.30;2.30;;;;;;;;;;4977461;28;20213;-66
2022/12/30 03:04:50;;;;;;;17.27;2.10;;;;;;;;;;4984568;28;20582;-66
2022/12/30 03:07:27;;;;;;;15.80;2.77;;;;;;;;;;4985027;28;20229;-66
2022/12/30 03:13:07;;;;;;;16.60;2.70;;;;;;;;;;5003830;28;20633;-66
2022/12/30 03:15:36;;;;;;;15.17;2.80;;;;;;;;;;5002699;28;20216;-66
2022/12/30 03:18:01;;;;;;;13.57;2.63;;;;;;;;;;4999734;28;20350;-66
2022/12/30 03:20:27;;;;;;;13.37;2.33;;;;;;;;;;5004036;28;20807;-66
2022/12/30 03:28:28;;;;;;;12.50;2.27;;;;;;;;;;5012185;28;20215;-66
2022/12/30 03:30:54;;;;;;;14.63;2.70;;;;;;;;;;5013737;28;20619;-66
2022/12/30 03:33:19;;;;;;;11.93;2.03;;;;;;;;;;5012883;28;20266;-66
2022/12/30 03:35:47;;;;;;;10.47;2.20;;;;;;;;;;5012041;28;20225;-66
2022/12/30 03:38:13;;;;;;;13.20;2.40;;;;;;;;;;5012365;28;20228;-66
2022/12/30 03:40:39;;;;;;;11.17;2.30;;;;;;;;;;5008062;28;20220;-66
2022/12/30 03:43:04;;;;;;;13.27;2.90;;;;;;;;;;4992311;28;20261;-66
2022/12/30 03:45:29;;;;;;;11.90;2.53;;;;;;;;;;4991986;28;20304;-66
2022/12/30 03:47:55;;;;;;;15.17;2.60;;;;;;;;;;4993822;28;20217;-66
2022/12/30 03:50:20;;;;;;;14.67;2.33;;;;;;;;;;4993082;28;20236;-66
2022/12/30 03:52:45;;;;;;;13.10;2.37;;;;;;;;;;4992772;28;20698;-66
2022/12/30 03:55:10;;;;;;;15.17;2.57;;;;;;;;;;4998868;28;20216;-66
2022/12/30 03:57:36;;;;;;;13.23;2.47;;;;;;;;;;5013103;28;20209;-66
2022/12/30 04:00:02;;;;;;;17.43;2.73;;;;;;;;;;5012491;28;20290;-66
2022/12/30 04:02:27;;;;;;;13.50;2.20;;;;;;;;;;5012920;28;20615;-66
2022/12/30 04:04:53;;;;;;;14.02;2.15;;;;;;;;;;5012936;28;20733;-66
2022/12/30 04:07:19;;;;;;;12.33;2.27;;;;;;;;;;5011563;28;20247;-66
2022/12/30 04:09:44;;;;;;;14.90;2.67;;;;;;;;;;5013141;28;20252;-66
2022/12/30 04:12:09;;;;;;;13.03;2.33;;;;;;;;;;5012354;28;20221;-66
2022/12/30 04:14:34;;;;;;;11.77;2.80;;;;;;;;;;5012356;28;20618;-66
2022/12/30 04:17:00;;;;;;;13.87;2.63;;;;;;;;;;5013084;28;20205;-67
2022/12/30 04:19:25;;;;;;;10.53;2.77;;;;;;;;;;5011980;28;20719;-66
2022/12/30 04:21:50;;;;;;;16.77;2.80;;;;;;;;;;5011937;28;20211;-64
2022/12/30 04:24:16;;;;;;;13.30;2.30;;;;;;;;;;4984761;28;20228;-65
2022/12/30 04:26:41;;;;;;;11.77;2.20;;;;;;;;;;4976150;28;20223;-65
2022/12/30 04:29:06;;;;;;;15.37;2.67;;;;;;;;;;4978578;28;20217;-64
2022/12/30 04:31:31;;;;;;;13.50;2.87;;;;;;;;;;4984115;28;20597;-64
2022/12/30 04:33:57;;;;;;;12.00;2.27;;;;;;;;;;4983104;28;20260;-65
2022/12/30 04:36:22;;;;;;;15.67;2.80;;;;;;;;;;4982672;28;20491;-65
2022/12/30 04:38:47;;;;;;;12.77;2.87;;;;;;;;;;5001965;28;20208;-65
2022/12/30 04:41:13;;;;;;;11.80;2.50;;;;;;;;;;4989753;28;20635;-64
2022/12/30 04:43:38;;;;;;;16.13;3.07;;;;;;;;;;4981274;28;20205;-64
2022/12/30 04:46:04;;;;;;;10.80;2.77;;;;;;;;;;4987893;28;20248;-65
2022/12/30 04:48:29;;;;;;;15.47;2.77;;;;;;;;;;4989883;28;20270;-64
2022/12/30 04:50:54;;;;;;;13.83;3.90;;;;;;;;;;4976724;28;20679;-64
2022/12/30 04:53:20;;;;;;;15.00;2.33;;;;;;;;;;4982684;28;20316;-64
2022/12/30 04:55:45;;;;;;;13.30;2.57;;;;;;;;;;4983042;28;20220;-65
2022/12/30 04:58:10;;;;;;;12.15;2.25;;;;;;;;;;4983688;28;20617;-64
2022/12/30 05:00:35;;;;;;;11.97;2.30;;;;;;;;;;5002148;28;20223;-64
2022/12/30 05:03:01;;;;;;;14.80;2.70;;;;;;;;;;5001704;28;20250;-64
2022/12/30 05:05:26;;;;;;;14.87;2.50;;;;;;;;;;5000909;28;20225;-64
2022/12/30 05:07:51;;;;;;;17.47;2.80;;;;;;;;;;4977480;28;20209;-64
2022/12/30 05:10:17;;;;;;;12.00;2.83;;;;;;;;;;4974497;28;20850;-64
2022/12/30 05:12:42;;;;;;;13.60;2.38;;;;;;;;;;4975132;28;20267;-65
2022/12/30 05:15:07;;;;;;;11.13;2.57;;;;;;;;;;4981183;28;20213;-65
2022/12/30 05:17:33;;;;;;;16.30;2.63;;;;;;;;;;4982379;28;20541;-65
2022/12/30 05:19:58;;;;;;;15.63;2.80;;;;;;;;;;4987677;28;20209;-64
2022/12/30 05:22:23;;;;;;;12.57;2.60;;;;;;;;;;4986802;28;20304;-64
2022/12/30 05:27:32;;;;;;;11.53;2.50;;;;;;;;;;5005967;28;20238;-64
2022/12/30 05:29:57;;;;;;;14.60;2.63;;;;;;;;;;5000834;28;20216;-65
2022/12/30 05:32:23;;;;;;;14.23;2.57;;;;;;;;;;4985042;28;20682;-64
2022/12/30 05:34:48;;;;;;;13.93;2.73;;;;;;;;;;4978889;28;20505;-64
2022/12/30 05:37:13;;;;;;;13.43;2.60;;;;;;;;;;4986513;28;20574;-65
2022/12/30 05:39:39;;;;;;;15.03;2.53;;;;;;;;;;4986235;28;20252;-64
2022/12/30 05:42:04;;;;;;;11.20;2.30;;;;;;;;;;4986553;28;20239;-64
2022/12/30 05:44:30;;;;;;;12.67;2.47;;;;;;;;;;4986875;28;20216;-64
2022/12/30 05:46:56;;;;;;;16.33;2.50;;;;;;;;;;4986140;28;20552;-64
2022/12/30 05:49:21;;;;;;;12.90;2.90;;;;;;;;;;4986383;28;20220;-64
2022/12/30 05:51:46;;;;;;;13.03;2.40;;;;;;;;;;4983238;28;20244;-64
2022/12/30 05:54:12;;;;;;;17.65;2.58;;;;;;;;;;4978524;28;20596;-64
2022/12/30 05:56:37;;;;;;;13.97;2.23;;;;;;;;;;4978643;28;20221;-65
2022/12/30 05:59:02;;;;;;;15.83;2.40;;;;;;;;;;4998489;28;20227;-64
2022/12/30 06:01:28;;;;;;;14.70;2.63;;;;;;;;;;5005484;28;20265;-64
2022/12/30 06:03:53;;;;;;;18.27;3.10;;;;;;;;;;5005366;28;20216;-64
2022/12/30 06:06:19;;;;;;;15.70;2.73;;;;;;;;;;4995437;28;20619;-64
2022/12/30 06:08:44;;;;;;;15.00;2.30;;;;;;;;;;4985755;28;20220;-64
2022/12/30 06:11:09;;;;;;;15.27;2.50;;;;;;;;;;4985752;28;20634;-64
2022/12/30 06:13:35;;;;;;;15.60;2.47;;;;;;;;;;4985414;28;20232;-64
2022/12/30 06:16:00;;;;;;;11.90;2.13;;;;;;;;;;4979126;28;20831;-65
2022/12/30 06:18:25;;;;;;;12.70;2.63;;;;;;;;;;4977358;28;20224;-64
2022/12/30 06:20:50;;;;;;;12.47;2.77;;;;;;;;;;4978890;28;20515;-64
2022/12/30 06:23:16;;;;;;;15.00;2.90;;;;;;;;;;4984962;28;20225;-64
2022/12/30 06:25:41;;;;;;;10.50;2.30;;;;;;;;;;4985733;28;20217;-64
2022/12/30 06:28:06;;;;;;;10.10;2.20;;;;;;;;;;4984800;28;20837;-64
2022/12/30 06:30:31;;;;;;;15.37;2.53;;;;;;;;;;4984177;28;20216;-64
2022/12/30 06:32:57;;;;;;;13.17;2.60;;;;;;;;;;4985569;28;20699;-64
2022/12/30 06:35:22;;;;;;;15.47;2.37;;;;;;;;;;4984601;28;20264;-64
2022/12/30 06:37:47;;;;;;;12.00;2.40;;;;;;;;;;4981037;28;20316;-64
2022/12/30 06:40:13;;;;;;;11.50;2.77;;;;;;;;;;4977377;28;20217;-64
2022/12/30 06:42:38;;;;;;;19.47;3.10;;;;;;;;;;4977170;28;20213;-65
2022/12/30 06:45:03;;;;;;;12.93;3.07;;;;;;;;;;4981609;28;20279;-64
2022/12/30 06:47:29;;;;;;;13.67;2.50;;;;;;;;;;4985451;28;20271;-65
2022/12/30 06:49:54;;;;;;;10.70;2.30;;;;;;;;;;4984271;28;20309;-65
2022/12/30 06:52:19;;;;;;;11.40;2.70;;;;;;;;;;4984918;28;20232;-64
2022/12/30 06:54:44;;;;;;;10.87;2.80;;;;;;;;;;4985392;28;20215;-65
2022/12/30 06:57:10;;;;;;;15.27;2.50;;;;;;;;;;4984229;28;20260;-65
2022/12/30 06:59:35;;;;;;;14.93;2.80;;;;;;;;;;4982878;28;20568;-63
2022/12/30 07:02:00;;;;;;;15.53;3.07;;;;;;;;;;4973404;28;20433;-65
2022/12/30 07:04:26;;;;;;;12.27;2.50;;;;;;;;;;4995924;28;20656;-65
2022/12/30 07:06:51;;;;;;;16.97;3.60;;;;;;;;;;4984285;28;20442;-65
2022/12/30 07:09:16;;;;;;;15.40;3.10;;;;;;;;;;4983731;28;20266;-65
2022/12/30 07:11:42;;;;;;;11.97;2.40;;;;;;;;;;4984839;28;20576;-66
2022/12/30 07:14:07;;;;;;;14.13;2.60;;;;;;;;;;4984522;28;20219;-66
2022/12/30 07:16:32;;;;;;;15.30;2.97;;;;;;;;;;4984243;28;20280;-66
2022/12/30 07:18:57;;;;;;;13.67;2.33;;;;;;;;;;4985811;28;20205;-66
2022/12/30 07:21:23;;;;;;;12.43;2.37;;;;;;;;;;4985222;28;20304;-66
2022/12/30 07:23:48;;;;;;;14.63;2.60;;;;;;;;;;4977906;28;20216;-66
2022/12/30 07:26:13;;;;;;;16.00;2.97;;;;;;;;;;4975678;28;20209;-65
2022/12/30 07:28:38;;;;;;;9.07;2.40;;;;;;;;;;4977094;28;20319;-65
2022/12/30 07:31:04;;;;;;;13.90;2.63;;;;;;;;;;4982041;28;20551;-65
2022/12/30 07:33:29;;;;;;;12.40;2.40;;;;;;;;;;4984554;28;20236;-65
2022/12/30 07:35:54;;;;;;;14.03;2.53;;;;;;;;;;4984395;28;20615;-65
2022/12/30 07:38:20;;;;;;;14.10;2.73;;;;;;;;;;4983499;28;20287;-65
2022/12/30 07:40:45;;;;;;;14.80;2.60;;;;;;;;;;4984273;28;21312;-65
2022/12/30 07:43:11;;;;;;;12.40;2.60;;;;;;;;;;4983944;28;20205;-65
2022/12/30 07:45:36;;;;;;;15.60;3.20;;;;;;;;;;4980188;28;20205;-65
2022/12/30 07:48:01;;;;;;;12.23;2.70;;;;;;;;;;4975825;28;20578;-65
2022/12/30 07:50:27;;;;;;;12.93;2.30;;;;;;;;;;4975423;28;20707;-65
2022/12/30 07:52:52;;;;;;;18.63;3.37;;;;;;;;;;4979694;28;20323;-65
2022/12/30 07:55:17;;;;;;;15.83;2.90;;;;;;;;;;4984228;28;20213;-65
2022/12/30 07:57:43;;;;;;;12.53;2.30;;;;;;;;;;4984319;28;20209;-65
2022/12/30 08:00:09;;;;;;;12.23;2.53;;;;;;;;;;4984154;28;20787;-65
2022/12/30 08:02:35;;;;;;;12.70;2.33;;;;;;;;;;5011234;28;20213;-65
2022/12/30 08:05:00;;;;;;;12.97;2.60;;;;;;;;;;5012635;28;20235;-65
2022/12/30 08:07:25;;;;;;;12.87;2.40;;;;;;;;;;5011720;28;20580;-66
2022/12/30 08:09:50;;;;;;;16.70;2.80;;;;;;;;;;5012602;28;20291;-65
2022/12/30 08:12:16;;;;;;;11.53;2.57;;;;;;;;;;5011085;28;20254;-65
2022/12/30 08:14:41;;;;;;;12.40;2.83;;;;;;;;;;5012618;28;20208;-65
2022/12/30 08:17:06;;;;;;;15.43;2.90;;;;;;;;;;5011663;28;20208;-65
2022/12/30 08:19:31;;;;;;;15.33;3.40;;;;;;;;;;5011365;28;20205;-65
2022/12/30 08:21:57;;;;;;;12.37;2.60;;;;;;;;;;5012662;28;20208;-66
2022/12/30 08:24:22;;;;;;;15.93;2.60;;;;;;;;;;5011968;28;20270;-66
2022/12/30 08:26:47;;;;;;;10.47;2.33;;;;;;;;;;5011583;28;20678;-66
2022/12/30 08:29:13;;;;;;;10.20;2.20;;;;;;;;;;5012040;28;20212;-65
2022/12/30 08:31:38;;;;;;;8.83;1.90;;;;;;;;;;5012281;28;20266;-66
2022/12/30 08:34:04;;;;;;;14.03;2.30;;;;;;;;;;5011396;28;20236;-64
2022/12/30 08:36:29;;;;;;;10.40;2.27;;;;;;;;;;5012717;28;20231;-63
2022/12/30 08:38:55;;;;;;;14.03;2.60;;;;;;;;;;5012747;28;20580;-65
2022/12/30 08:41:22;;;;;;;13.43;2.90;;;;;;;;;;5011443;28;20239;-65
2022/12/30 08:43:47;;;;;;;12.23;2.23;;;;;;;;;;5012187;28;20622;-64
2022/12/30 08:46:12;;;;;;;11.70;2.30;;;;;;;;;;5011950;28;20295;-64
2022/12/30 08:48:38;;;;;;;14.67;2.80;;;;;;;;;;5010523;28;20220;-64
2022/12/30 08:51:03;;;;;;;11.70;2.40;;;;;;;;;;5011659;28;20282;-64
2022/12/30 08:53:28;;;;;;;13.80;2.37;;;;;;;;;;5013035;28;20216;-65
2022/12/30 08:55:58;;;;;;;11.03;1.83;;;;;;;;;;5012403;28;20694;-65
2022/12/30 08:58:23;;;;;;;8.93;2.33;;;;;;;;;;5015823;28;20212;-64
2022/12/30 09:00:49;;;;;;;10.60;2.23;;;;;;;;;;5016013;28;20295;-64
2022/12/30 09:03:14;;;;;;;9.07;1.90;;;;;;;;;;5014891;28;20734;-64
2022/12/30 09:05:39;;;;;;;11.00;2.20;;;;;;;;;;5016319;28;20212;-64
2022/12/30 09:08:05;;;;;;;9.77;2.17;;;;;;;;;;5015985;28;20706;-65
2022/12/30 09:10:30;;;;;;;11.37;1.97;;;;;;;;;;5015552;28;20223;-64
2022/12/30 09:12:55;;;;;;;11.50;2.33;;;;;;;;;;5015678;28;20238;-64
2022/12/30 09:15:20;;;;;;;9.83;1.97;;;;;;;;;;5015199;28;20220;-65
2022/12/30 09:17:46;;;;;;;13.53;2.57;;;;;;;;;;5015165;28;20616;-65
2022/12/30 09:20:11;;;;;;;7.47;1.97;;;;;;;;;;5015408;28;20258;-64
2022/12/30 09:22:36;;;;;;;6.20;1.83;;;;;;;;;;5015362;28;20622;-65
2022/12/30 09:25:01;;;;;;;8.50;2.13;;;;;;;;;;5015758;28;20215;-64
2022/12/30 09:27:27;;;;;;;10.32;2.45;;;;;;;;;;5015885;28;20576;-64
2022/12/30 09:29:52;;;;;;;8.60;1.90;;;;;;;;;;5015267;28;20250;-64
2022/12/30 09:32:17;;;;;;;7.63;1.70;;;;;;;;;;5014945;28;20282;-64
2022/12/30 09:34:42;;;;;;;8.73;1.50;;;;;;;;;;5015304;28;20224;-64
2022/12/30 09:37:08;;;;;;;12.10;1.93;;;;;;;;;;5014412;28;20259;-65
2022/12/30 09:39:33;;;;;;;7.93;1.80;;;;;;;;;;5014545;28;20204;-64
2022/12/30 09:45:03;;;;;;;7.07;1.73;;;;;;;;;;5014758;28;20223;-65
2022/12/30 09:47:32;;;;;;;9.05;1.83;;;;;;;;;;5013089;28;20506;-63
2022/12/30 09:49:59;;;;;;;5.70;1.47;;;;;;;;;;5013334;28;20299;-65
2022/12/30 09:52:28;;;;;;;6.77;1.60;;;;;;;;;;5012932;28;20220;-65
2022/12/30 09:54:56;;;;;;;6.03;1.20;;;;;;;;;;5014104;28;20197;-65
2022/12/30 09:57:33;;;;;;;7.93;1.70;;;;;;;;;;5015072;28;20217;-65
2022/12/30 10:00:01;;;;;;;7.63;2.10;;;;;;;;;;5012886;28;20208;-66
2022/12/30 10:02:28;;;;;;;12.13;1.80;;;;;;;;;;5013717;28;20568;-66
2022/12/30 10:04:54;;;;;;;10.77;1.60;;;;;;;;;;5014602;28;20354;-66
2022/12/30 10:07:40;;;;;;;7.20;1.70;;;;;;;;;;4997869;28;20744;-65
2022/12/30 10:10:09;;;;;;;7.57;1.60;;;;;;;;;;4995298;28;20673;-65
2022/12/30 10:12:39;;;;;;;8.00;1.80;;;;;;;;;;5000444;28;20259;-65
2022/12/30 10:15:07;;;;;;;9.40;1.60;;;;;;;;;;5014328;28;20238;-65
2022/12/30 10:17:59;;;;;;;7.63;1.93;;;;;;;;;;5015261;28;20209;-66
2022/12/30 10:20:33;;;;;;;11.23;1.50;;;;;;;;;;5013625;28;20215;-66
2022/12/30 10:23:01;;;;;;;7.70;1.40;;;;;;;;;;5013817;28;20299;-66
2022/12/30 10:25:32;;;;;;;6.53;1.92;;;;;;;;;;5013624;28;20218;-66
2022/12/30 10:27:57;;;;;;;9.07;1.70;;;;;;;;;;5014156;28;20258;-66
2022/12/30 10:30:24;;;;;;;7.20;1.60;;;;;;;;;;5012905;28;20652;-66
2022/12/30 10:32:53;;;;;;;6.03;1.30;;;;;;;;;;5013705;28;20247;-66
2022/12/30 10:35:21;;;;;;;7.10;1.60;;;;;;;;;;5012272;28;20311;-66
2022/12/30 10:37:46;;;;;;;7.77;1.70;;;;;;;;;;5014915;28;20208;-66
2022/12/30 10:40:13;;;;;;;9.63;1.70;;;;;;;;;;5011971;28;20315;-66
2022/12/30 10:42:44;;;;;;;8.40;2.00;;;;;;;;;;5014768;28;20258;-66
2022/12/30 10:45:10;;;;;;;9.50;1.60;;;;;;;;;;5012550;28;20616;-66
2022/12/30 10:47:42;;;;;;;6.90;1.45;;;;;;;;;;5013710;28;20209;-66
2022/12/30 10:50:17;;;;;;;6.50;1.40;;;;;;;;;;5014073;28;20291;-66
2022/12/30 10:52:43;;;;;;;7.40;1.42;;;;;;;;;;5013008;28;20216;-66
2022/12/30 10:55:15;;;;;;;9.30;1.80;;;;;;;;;;5012392;28;20212;-66
2022/12/30 10:57:40;;;;;;;8.60;1.70;;;;;;;;;;5013268;28;20236;-66
2022/12/30 11:00:06;;;;;;;5.37;1.30;;;;;;;;;;5012179;28;20228;-66
2022/12/30 11:02:33;;;;;;;8.10;1.70;;;;;;;;;;5013438;28;20204;-66
2022/12/30 11:05:00;;;;;;;6.33;1.40;;;;;;;;;;5014128;28;20250;-66
2022/12/30 11:07:26;;;;;;;7.17;1.50;;;;;;;;;;4994639;28;20284;-66
2022/12/30 11:09:51;;;;;;;6.77;1.70;;;;;;;;;;4993657;28;20676;-66
2022/12/30 11:15:03;;;;;;;7.17;1.50;;;;;;;;;;5013412;28;20223;-65
2022/12/30 11:17:28;;;;;;;9.87;1.90;;;;;;;;;;5012522;28;20228;-66
2022/12/30 11:19:55;;;;;;;5.53;1.10;;;;;;;;;;5013930;28;20814;-66
2022/12/30 11:22:21;;;;;;;6.40;1.40;;;;;;;;;;5011220;28;20223;-66
2022/12/30 11:24:53;;;;;;;6.87;1.60;;;;;;;;;;5012761;28;20208;-66
2022/12/30 11:27:26;;;;;;;5.87;1.50;;;;;;;;;;5012048;28;20349;-68
2022/12/30 11:29:51;;;;;;;5.50;1.30;;;;;;;;;;5012810;28;20200;-67
2022/12/30 11:32:16;;;;;;;7.57;1.30;;;;;;;;;;5011744;28;20228;-70
2022/12/30 11:34:42;;;;;;;7.88;1.00;;;;;;;;;;5013756;28;20232;-70
2022/12/30 11:37:25;;;;;;;6.93;1.33;;;;;;;;;;5011127;28;20213;-68
2022/12/30 11:39:50;;;;;;;6.17;1.30;;;;;;;;;;5012328;28;20213;-69
2022/12/30 11:42:27;;;;;;;5.20;1.10;;;;;;;;;;5012780;28;20204;-69
2022/12/30 11:45:01;;;;;;;8.43;1.23;;;;;;;;;;5012535;28;20225;-68
2022/12/30 11:47:26;;;;;;;8.87;1.40;;;;;;;;;;5001424;28;20208;-67
2022/12/30 11:49:53;;;;;;;5.90;1.30;;;;;;;;;;4993975;28;20216;-69
2022/12/30 11:52:23;;;;;;;6.93;1.30;;;;;;;;;;5011809;28;20308;-68
2022/12/30 11:54:50;;;;;;;7.03;1.25;;;;;;;;;;5012029;28;20228;-69
2022/12/30 11:57:20;;;;;;;7.80;1.40;;;;;;;;;;5012617;28;20322;-68
2022/12/30 11:59:45;;;;;;;4.70;1.03;;;;;;;;;;5012849;28;20263;-67
2022/12/30 12:02:29;;;;;;;5.67;1.33;;;;;;;;;;5011814;28;20216;-67
2022/12/30 12:04:55;;;;;;;7.55;1.20;;;;;;;;;;5009280;28;20224;-67
2022/12/30 12:07:21;;;;;;;6.10;1.63;;;;;;;;;;5008551;28;20343;-67
2022/12/30 12:09:49;;;;;;;5.50;1.10;;;;;;;;;;5010611;28;20216;-67
2022/12/30 12:12:15;;;;;;;4.23;1.07;;;;;;;;;;5008799;28;20220;-67
2022/12/30 12:14:48;;;;;;;5.65;1.20;;;;;;;;;;5011565;28;20239;-67
2022/12/30 12:17:22;;;;;;;4.97;1.30;;;;;;;;;;5010911;28;20263;-67
2022/12/30 12:19:55;;;;;;;4.40;1.00;;;;;;;;;;5012243;28;20212;-67
2022/12/30 12:22:33;;;;;;;6.60;1.30;;;;;;;;;;5011067;28;20726;-67
2022/12/30 12:25:02;;;;;;;8.93;1.30;;;;;;;;;;5011705;28;20204;-67
2022/12/30 12:27:27;;;;;;;7.13;1.00;;;;;;;;;;5010961;28;20659;-67
2022/12/30 12:29:53;;;;;;;5.87;1.07;;;;;;;;;;5012623;28;20211;-67
2022/12/30 12:32:24;;;;;;;6.60;1.40;;;;;;;;;;5010935;28;20561;-67
2022/12/30 12:35:03;;;;;;;5.32;1.17;;;;;;;;;;5011342;28;20235;-67
2022/12/30 12:37:32;;;;;;;5.57;1.15;;;;;;;;;;5012315;28;20679;-67
2022/12/30 12:40:01;;;;;;;6.22;1.20;;;;;;;;;;5005273;28;20227;-67
2022/12/30 12:42:29;;;;;;;4.10;0.90;;;;;;;;;;5011176;28;20212;-67
2022/12/30 12:45:04;;;;;;;5.85;1.00;;;;;;;;;;5011065;28;20255;-67
2022/12/30 12:47:30;;;;;;;4.53;1.10;;;;;;;;;;5010161;28;20216;-67
2022/12/30 12:50:01;;;;;;;5.93;1.20;;;;;;;;;;5012520;28;20220;-67
2022/12/30 12:52:41;;;;;;;6.63;1.20;;;;;;;;;;5011976;28;20220;-67
2022/12/30 12:55:14;;;;;;;4.72;1.05;;;;;;;;;;5011032;28;20204;-67
2022/12/30 12:57:41;;;;;;;6.77;1.10;;;;;;;;;;5011277;28;20216;-67
2022/12/30 13:00:13;;;;;;;6.53;1.20;;;;;;;;;;5010182;28;20590;-67
2022/12/30 13:02:45;;;;;;;6.18;1.40;;;;;;;;;;5011643;28;20215;-68
2022/12/30 13:05:21;;;;;;;6.23;1.10;;;;;;;;;;5011813;28;20729;-67
2022/12/30 13:07:51;;;;;;;6.30;1.17;;;;;;;;;;4990797;28;20269;-67
2022/12/30 13:10:21;;;;;;;4.32;1.10;;;;;;;;;;4990836;28;20575;-67
2022/12/30 13:12:56;;;;;;;5.50;1.10;;;;;;;;;;4999828;28;20355;-68
2022/12/30 13:15:23;;;;;;;8.73;1.30;;;;;;;;;;5010526;28;20220;-68
2022/12/30 13:17:48;;;;;;;9.83;1.30;;;;;;;;;;5011091;28;20273;-67
2022/12/30 13:20:15;;;;;;;6.00;1.17;;;;;;;;;;5010298;28;20733;-67
2022/12/30 13:22:40;;;;;;;6.80;1.35;;;;;;;;;;5010373;28;20702;-67
2022/12/30 13:25:20;;;;;;;7.30;1.20;;;;;;;;;;5011758;28;20205;-67
2022/12/30 13:27:45;;;;;;;5.17;1.20;;;;;;;;;;5012084;28;20204;-68
2022/12/30 13:30:13;;;;;;;5.93;1.20;;;;;;;;;;5010530;28;20251;-68
2022/12/30 13:32:47;;;;;;;7.20;1.33;;;;;;;;;;5012100;28;20217;-68
2022/12/30 13:35:21;;;;;;;4.07;1.00;;;;;;;;;;5010258;28;20278;-68
2022/12/30 13:37:56;;;;;;;7.07;1.10;;;;;;;;;;5011080;28;20300;-68
2022/12/30 13:40:22;;;;;;;9.23;1.40;;;;;;;;;;5013731;28;20216;-68
2022/12/30 13:42:52;;;;;;;8.73;1.40;;;;;;;;;;5014089;28;20212;-68
2022/12/30 13:45:20;;;;;;;6.80;1.10;;;;;;;;;;5013713;28;20220;-68
2022/12/30 13:47:45;;;;;;;6.30;1.13;;;;;;;;;;5014393;28;20224;-68
2022/12/30 13:50:17;;;;;;;6.28;1.48;;;;;;;;;;5012995;28;20221;-68
2022/12/30 13:52:43;;;;;;;6.07;1.27;;;;;;;;;;5015529;28;20236;-68
2022/12/30 13:55:16;;;;;;;4.57;1.20;;;;;;;;;;5014346;28;20213;-67
2022/12/30 13:57:41;;;;;;;7.80;1.50;;;;;;;;;;5011999;28;20230;-67
2022/12/30 14:00:08;;;;;;;5.18;1.13;;;;;;;;;;5012560;28;20576;-67
2022/12/30 14:02:35;;;;;;;5.97;1.43;;;;;;;;;;5015617;28;20217;-67
2022/12/30 14:05:01;;;;;;;7.00;1.60;;;;;;;;;;5013383;28;20211;-65
2022/12/30 14:07:38;;;;;;;6.65;1.58;;;;;;;;;;5015299;28;20209;-67
2022/12/30 14:10:29;;;;;;;6.07;1.80;;;;;;;;;;5013374;28;20228;-66
2022/12/30 14:13:14;;;;;;;5.25;1.23;;;;;;;;;;5019799;28;20594;-67
2022/12/30 14:15:40;;;;;;;9.80;1.40;;;;;;;;;;4994987;28;20240;-67
2022/12/30 14:18:15;;;;;;;5.90;1.27;;;;;;;;;;4994291;28;20280;-66
2022/12/30 14:20:41;;;;;;;5.33;1.00;;;;;;;;;;4997848;28;20216;-67
2022/12/30 14:23:06;;;;;;;5.33;1.10;;;;;;;;;;5010231;28;20213;-67
2022/12/30 14:25:32;;;;;;;7.57;1.40;;;;;;;;;;5013845;28;20212;-67
2022/12/30 14:27:59;;;;;;;4.97;1.20;;;;;;;;;;5015005;28;20216;-67
2022/12/30 14:30:32;;;;;;;6.10;1.20;;;;;;;;;;5014423;28;20236;-67
2022/12/30 14:33:01;;;;;;;4.03;1.10;;;;;;;;;;5012777;28;20240;-67
2022/12/30 14:35:26;;;;;;;5.97;1.30;;;;;;;;;;5014356;28;20228;-67
2022/12/30 14:37:52;;;;;;;7.05;1.13;;;;;;;;;;5013770;28;20258;-67
2022/12/30 14:40:26;;;;;;;8.10;1.83;;;;;;;;;;5012118;28;20667;-66
2022/12/30 14:42:51;;;;;;;7.05;1.60;;;;;;;;;;5014642;28;20574;-67
2022/12/30 14:45:19;;;;;;;5.65;1.25;;;;;;;;;;5012847;28;20224;-66
2022/12/30 14:47:46;;;;;;;6.63;1.30;;;;;;;;;;5012623;28;20715;-67
2022/12/30 14:50:13;;;;;;;5.57;1.37;;;;;;;;;;5013618;28;20251;-67
2022/12/30 14:52:42;;;;;;;5.97;1.47;;;;;;;;;;5013733;28;20227;-67
2022/12/30 14:55:08;;;;;;;4.93;1.50;;;;;;;;;;5013087;28;20675;-66
2022/12/30 14:57:34;;;;;;;5.83;1.37;;;;;;;;;;5001774;28;20217;-66
2022/12/30 15:00:05;;;;;;;6.28;1.67;;;;;;;;;;4998281;28;20212;-66
2022/12/30 15:02:31;;;;;;;6.85;1.65;;;;;;;;;;4999130;28;20311;-66
2022/12/30 15:05:09;;;;;;;5.63;1.80;;;;;;;;;;5003038;28;20208;-67
2022/12/30 15:07:35;;;;;;;2.88;1.17;;;;;;;;;;5004544;28;20742;-67
2022/12/30 15:10:00;;;;;;;4.97;1.43;;;;;;;;;;5004875;28;20239;-66
2022/12/30 15:12:26;;;;;;;3.07;1.30;;;;;;;;;;5005984;28;20248;-66
2022/12/30 15:14:52;;;;;;;4.63;1.65;;;;;;;;;;5004656;28;20239;-67
2022/12/30 15:17:21;;;;;;;3.53;1.50;;;;;;;;;;5005494;28;20323;-67
2022/12/30 15:19:47;;;;;;;3.77;1.60;;;;;;;;;;5005665;28;20208;-67
2022/12/30 15:22:12;;;;;;;4.57;1.35;;;;;;;;;;4998011;28;20255;-67
2022/12/30 15:24:44;;;;;;;4.77;1.60;;;;;;;;;;4999848;28;20782;-68
2022/12/30 15:27:14;;;;;;;5.97;1.73;;;;;;;;;;5001152;28;20228;-67
2022/12/30 15:29:39;;;;;;;4.73;1.83;;;;;;;;;;5006779;28;20261;-68
2022/12/30 15:32:05;;;;;;;3.70;1.90;;;;;;;;;;5006440;28;22761;-68
2022/12/30 15:34:32;;;;;;;4.10;2.27;;;;;;;;;;5007245;28;20256;-67
2022/12/30 15:36:57;;;;;;;4.13;1.77;;;;;;;;;;5004321;28;20212;-68